createdAt,value
2018-04-27T00:00:56.941Z,9.60
2018-04-27T00:04:50.192Z,9.60
2018-04-27T00:08:43.329Z,9.70
2018-04-27T00:12:37.401Z,9.50
2018-04-27T00:16:30.604Z,9.50
2018-04-27T00:20:23.802Z,9.50
2018-04-27T00:24:17.044Z,9.50
2018-04-27T00:28:10.337Z,9.50
2018-04-27T00:32:11.139Z,9.40
2018-04-27T00:36:10.213Z,9.40
2018-04-27T00:40:03.392Z,9.30
2018-04-27T00:43:56.590Z,9.10
2018-04-27T00:47:50.086Z,9.30
2018-04-27T00:51:43.267Z,9.30
2018-04-27T00:55:36.486Z,9.20
2018-04-27T00:59:29.774Z,9.10
2018-04-27T01:03:22.989Z,9.10
2018-04-27T01:07:16.194Z,9.10
2018-04-27T01:11:09.924Z,9.00
2018-04-27T01:15:03.996Z,9.00
2018-04-27T01:18:57.275Z,9.00
2018-04-27T01:22:50.465Z,9.00
2018-04-27T01:26:44.449Z,8.80
2018-04-27T01:30:39.126Z,8.80
2018-04-27T01:34:33.343Z,8.80
2018-04-27T01:38:26.768Z,8.90
2018-04-27T01:42:20.005Z,9.00
2018-04-27T01:46:13.289Z,9.00
2018-04-27T01:50:06.531Z,8.80
2018-04-27T01:53:59.723Z,8.60
2018-04-27T01:57:53.814Z,8.80
2018-04-27T02:01:47.053Z,8.80
2018-04-27T02:05:40.269Z,8.70
2018-04-27T02:09:33.506Z,8.60
2018-04-27T02:13:30.004Z,8.70
2018-04-27T02:17:23.198Z,8.60
2018-04-27T02:21:21.294Z,8.60
2018-04-27T02:25:16.585Z,8.60
2018-04-27T02:29:09.876Z,8.60
2018-04-27T03:22:01.749Z,8.40
2018-04-27T03:25:55.012Z,8.40
2018-04-27T03:29:48.217Z,8.30
2018-04-27T03:33:42.273Z,8.20
2018-04-27T03:37:35.716Z,8.20
2018-04-27T03:41:29.727Z,8.20
2018-04-27T03:45:22.929Z,8.20
2018-04-27T03:49:16.724Z,8.20
2018-04-27T03:53:10.205Z,8.10
2018-04-27T03:57:04.054Z,8.10
2018-04-27T04:01:10.709Z,8.00
2018-04-27T04:09:35.440Z,7.90
2018-04-27T04:13:28.904Z,7.80
2018-04-27T04:17:22.166Z,8.10
2018-04-27T04:21:15.640Z,8.00
2018-04-27T04:25:09.586Z,8.00
2018-04-27T04:29:02.909Z,8.00
2018-04-27T04:32:56.686Z,7.90
2018-04-27T04:36:49.947Z,7.90
2018-04-27T04:40:43.885Z,7.90
2018-04-27T04:44:37.110Z,7.90
2018-04-27T04:48:31.623Z,8.00
2018-04-27T04:52:25.384Z,8.10
2018-04-27T04:56:18.445Z,8.10
2018-04-27T05:00:12.586Z,8.30
2018-04-27T05:04:06.425Z,8.60
2018-04-27T05:07:59.706Z,8.80
2018-04-27T05:11:53.121Z,9.00
2018-04-27T05:15:46.272Z,9.20
2018-04-27T05:19:40.266Z,9.30
2018-04-27T05:23:33.955Z,9.40
2018-04-27T05:27:27.148Z,9.60
2018-04-27T05:31:24.384Z,9.80
2018-04-27T05:35:17.759Z,10.10
2018-04-27T05:39:11.918Z,10.40
2018-04-27T05:43:05.772Z,10.40
2018-04-27T05:46:59.628Z,10.50
2018-04-27T05:50:52.818Z,10.60
2018-04-27T05:54:45.973Z,10.70
2018-04-27T05:58:39.118Z,10.80
2018-04-27T06:02:33.056Z,10.80
2018-04-27T06:06:26.675Z,10.80
2018-04-27T06:10:19.827Z,11.00
2018-04-27T06:14:14.043Z,11.00
2018-04-27T06:18:07.183Z,11.00
2018-04-27T06:22:00.433Z,11.00
2018-04-27T06:25:54.447Z,11.10
2018-04-27T06:29:48.433Z,11.10
2018-04-27T06:33:41.785Z,11.10
2018-04-27T06:37:35.252Z,11.10
2018-04-27T06:41:31.401Z,11.30
2018-04-27T06:45:25.837Z,11.40
2018-04-27T06:49:19.292Z,11.50
2018-04-27T06:53:13.441Z,11.60
2018-04-27T06:57:09.078Z,11.70
2018-04-27T07:01:02.459Z,11.60
2018-04-27T07:04:57.009Z,11.90
2018-04-27T07:08:55.485Z,11.90
2018-04-27T07:12:48.975Z,11.90
2018-04-27T07:16:47.331Z,12.00
2018-04-27T07:20:41.092Z,12.10
2018-04-27T07:24:34.923Z,12.40
2018-04-27T07:28:29.105Z,12.50
2018-04-27T07:32:22.383Z,12.70
2018-04-27T07:36:16.285Z,13.20
2018-04-27T07:40:10.039Z,13.20
2018-04-27T07:44:04.198Z,13.40
2018-04-27T07:47:58.715Z,13.80
2018-04-27T07:51:52.659Z,14.10
2018-04-27T07:55:45.771Z,14.10
2018-04-27T07:59:38.981Z,14.40
2018-04-27T08:03:32.181Z,14.70
2018-04-27T08:07:26.107Z,15.00
2018-04-27T08:11:19.453Z,15.00
2018-04-27T08:15:16.267Z,15.40
2018-04-27T08:19:10.677Z,15.30
2018-04-27T08:23:04.374Z,15.40
2018-04-27T08:26:57.955Z,15.40
2018-04-27T08:30:53.341Z,15.40
2018-04-27T08:34:45.892Z,15.40
2018-04-27T08:38:39.278Z,15.40
2018-04-27T08:42:32.495Z,15.50
2018-04-27T08:46:25.809Z,15.50
2018-04-27T08:50:19.019Z,15.50
2018-04-27T08:54:12.436Z,15.60
2018-04-27T08:58:05.597Z,15.60
2018-04-27T09:01:59.379Z,15.80
2018-04-27T09:05:55.523Z,16.00
2018-04-27T09:09:51.069Z,16.00
2018-04-27T09:13:44.362Z,16.00
2018-04-27T09:17:37.632Z,16.10
2018-04-27T09:21:30.782Z,16.40
2018-04-27T09:25:25.278Z,16.60
2018-04-27T09:29:19.227Z,16.80
2018-04-27T09:33:13.205Z,16.90
2018-04-27T09:37:06.964Z,16.90
2018-04-27T09:45:26.169Z,17.00
2018-04-27T09:49:20.230Z,17.00
2018-04-27T09:53:13.417Z,17.10
2018-04-27T09:57:07.177Z,17.00
2018-04-27T10:01:02.080Z,16.80
2018-04-27T10:04:56.109Z,16.80
2018-04-27T10:08:49.302Z,17.10
2018-04-27T10:12:46.237Z,17.20
2018-04-27T10:16:40.008Z,17.00
2018-04-27T10:20:33.963Z,17.20
2018-04-27T10:24:27.788Z,17.40
2018-04-27T10:28:22.499Z,17.80
2018-04-27T10:32:16.228Z,17.80
2018-04-27T10:36:09.375Z,17.90
2018-04-27T10:40:02.516Z,18.00
2018-04-27T10:43:55.701Z,18.00
2018-04-27T10:47:49.541Z,18.10
2018-04-27T10:51:43.770Z,18.30
2018-04-27T10:55:36.950Z,18.60
2018-04-27T10:59:30.070Z,18.50
2018-04-27T11:03:24.123Z,18.40
2018-04-27T11:07:17.293Z,18.40
2018-04-27T11:11:10.592Z,18.20
2018-04-27T11:15:04.518Z,18.60
2018-04-27T11:18:59.647Z,18.60
2018-04-27T11:22:52.804Z,18.90
2018-04-27T11:26:46.720Z,18.80
2018-04-27T11:30:40.771Z,18.70
2018-04-27T11:34:35.034Z,18.70
2018-04-27T11:38:29.144Z,18.60
2018-04-27T11:42:22.488Z,18.50
2018-04-27T11:46:16.396Z,18.70
2018-04-27T11:50:09.626Z,18.80
2018-04-27T11:54:11.294Z,18.50
2018-04-27T11:58:12.335Z,18.10
2018-04-27T12:02:05.520Z,18.10
2018-04-27T12:05:58.777Z,18.20
2018-04-27T12:09:53.162Z,18.40
2018-04-27T12:13:47.060Z,19.00
2018-04-27T12:17:40.682Z,18.90
2018-04-27T12:21:33.817Z,19.20
2018-04-27T12:25:27.809Z,19.30
2018-04-27T12:29:21.823Z,19.40
2018-04-27T12:33:15.032Z,19.40
2018-04-27T12:37:08.275Z,19.40
2018-04-27T12:41:02.518Z,19.50
2018-04-27T12:44:55.683Z,19.50
2018-04-27T12:48:48.941Z,19.60
2018-04-27T12:52:43.789Z,19.80
2018-04-27T12:56:38.124Z,19.50
2018-04-27T13:00:31.301Z,19.10
2018-04-27T13:04:25.980Z,19.00
2018-04-27T13:08:19.460Z,18.90
2018-04-27T13:12:12.764Z,18.80
2018-04-27T13:16:07.380Z,18.80
2018-04-27T13:20:02.241Z,18.80
2018-04-27T13:23:55.474Z,19.00
2018-04-27T13:27:49.314Z,19.30
2018-04-27T13:31:42.491Z,19.50
2018-04-27T13:35:36.496Z,18.40
2018-04-27T13:39:30.404Z,18.60
2018-04-27T13:43:23.927Z,18.50
2018-04-27T13:47:17.297Z,19.10
2018-04-27T13:51:10.475Z,18.50
2018-04-27T13:55:03.747Z,18.60
2018-04-27T13:58:57.148Z,18.60
2018-04-27T14:02:50.656Z,18.40
2018-04-27T14:06:44.007Z,18.60
2018-04-27T14:10:38.468Z,18.60
2018-04-27T14:14:31.640Z,18.80
2018-04-27T14:18:25.264Z,19.00
2018-04-27T14:22:19.049Z,18.70
2018-04-27T14:26:12.210Z,18.30
2018-04-27T14:30:05.466Z,18.50
2018-04-27T14:33:58.139Z,18.30
2018-04-27T14:37:51.928Z,18.30
2018-04-27T14:41:45.900Z,18.40
2018-04-27T14:45:39.931Z,18.70
2018-04-27T14:49:33.644Z,19.10
2018-04-27T14:53:26.795Z,19.00
2018-04-27T14:57:19.911Z,19.30
2018-04-27T15:01:13.871Z,19.10
2018-04-27T15:05:07.608Z,19.10
2018-04-27T15:09:00.813Z,19.10
2018-04-27T15:12:54.695Z,19.30
2018-04-27T15:16:47.935Z,19.50
2018-04-27T15:20:41.131Z,18.90
2018-04-27T15:24:34.320Z,19.60
2018-04-27T15:28:28.335Z,19.00
2018-04-27T15:32:21.445Z,19.00
2018-04-27T15:36:14.366Z,19.30
2018-04-27T15:40:07.800Z,19.60
2018-04-27T15:44:01.150Z,19.70
2018-04-27T15:47:54.317Z,20.10
2018-04-27T15:51:47.507Z,19.80
2018-04-27T15:55:40.837Z,19.90
2018-04-27T15:59:36.410Z,20.50
2018-04-27T16:03:36.567Z,19.80
2018-04-27T16:11:48.392Z,20.30
2018-04-27T16:15:41.696Z,20.30
2018-04-27T16:19:36.527Z,19.30
2018-04-27T16:23:29.985Z,19.20
2018-04-27T16:27:24.781Z,18.70
2018-04-27T16:31:18.152Z,18.70
2018-04-27T16:35:12.255Z,18.80
2018-04-27T16:39:05.623Z,19.20
2018-04-27T16:43:00.507Z,19.10
2018-04-27T16:46:55.860Z,18.80
2018-04-27T16:50:49.897Z,18.90
2018-04-27T16:54:43.063Z,18.90
2018-04-27T16:58:36.268Z,18.60
2018-04-27T17:02:29.494Z,18.70
2018-04-27T17:06:22.848Z,18.80
2018-04-27T17:10:17.093Z,18.80
2018-04-27T17:14:10.993Z,18.70
2018-04-27T17:18:04.164Z,18.70
2018-04-27T17:21:57.529Z,18.60
2018-04-27T17:25:50.663Z,18.50
2018-04-27T17:29:44.233Z,18.30
2018-04-27T17:33:38.222Z,18.20
2018-04-27T17:37:32.375Z,18.20
2018-04-27T17:41:25.580Z,18.20
2018-04-27T17:45:19.519Z,18.10
2018-04-27T17:49:13.422Z,18.10
2018-04-27T17:53:08.855Z,18.00
2018-04-27T17:57:03.595Z,17.90
2018-04-27T18:00:57.735Z,17.90
2018-04-27T18:04:51.020Z,17.80
2018-04-27T18:08:45.631Z,17.70
2018-04-27T18:12:40.119Z,17.60
2018-04-27T18:16:34.612Z,17.50
2018-04-27T18:20:27.636Z,17.40
2018-04-27T18:24:20.864Z,17.50
2018-04-27T18:28:14.008Z,17.50
2018-04-27T18:32:09.377Z,17.40
2018-04-27T18:36:02.823Z,17.40
2018-04-27T18:41:43.951Z,17.50
2018-04-27T18:45:39.843Z,19.50
2018-04-27T19:01:55.694Z,21.50
2018-04-27T19:09:19.762Z,20.30
2018-04-27T19:13:14.010Z,19.10
2018-04-27T19:17:08.885Z,17.80
2018-04-27T19:21:03.595Z,17.70
2018-04-27T19:24:56.884Z,17.50
2018-04-27T19:28:50.073Z,17.40
2018-04-27T19:32:43.742Z,17.30
2018-04-27T19:36:36.647Z,17.10
2018-04-27T19:40:32.783Z,16.90
2018-04-27T19:44:25.979Z,16.80
2018-04-27T19:48:19.550Z,16.70
2018-04-27T19:52:12.705Z,16.60
2018-04-27T19:56:06.915Z,16.40
2018-04-27T20:00:00.107Z,16.30
2018-04-27T20:03:53.369Z,16.20
2018-04-27T20:07:46.522Z,16.20
2018-04-27T20:11:43.470Z,16.10
2018-04-27T20:15:37.412Z,16.10
2018-04-27T20:19:30.584Z,16.10
2018-04-27T20:23:26.149Z,16.00
2018-04-27T20:27:20.225Z,16.00
2018-04-27T20:31:14.211Z,15.90
2018-04-27T20:35:09.984Z,15.80
2018-04-27T20:39:03.164Z,15.90
2018-04-27T20:42:56.322Z,15.90
2018-04-27T20:46:50.421Z,15.90
2018-04-27T20:55:15.142Z,15.80
2018-04-27T20:59:08.636Z,15.80
2018-04-27T21:03:03.141Z,15.60
2018-04-27T21:06:57.753Z,15.60
2018-04-27T21:10:51.153Z,15.40
2018-04-27T21:14:44.405Z,15.40
2018-04-27T21:18:38.566Z,15.30
2018-04-27T21:22:33.390Z,15.40
2018-04-27T21:26:28.592Z,15.30
2018-04-27T21:30:21.835Z,15.20
2018-04-27T21:34:16.438Z,15.10
2018-04-27T21:38:15.236Z,15.00
2018-04-27T21:42:12.960Z,15.00
2018-04-27T21:46:07.133Z,15.00
2018-04-27T21:50:02.614Z,15.00
2018-04-27T21:53:55.959Z,15.10
2018-04-27T21:57:50.041Z,15.00
2018-04-27T22:01:43.224Z,14.90
2018-04-27T22:05:40.985Z,15.10
2018-04-27T22:09:54.402Z,15.00
2018-04-27T22:13:50.090Z,15.00
2018-04-27T22:17:43.263Z,15.00
2018-04-27T22:21:39.234Z,14.90
2018-04-27T22:25:42.379Z,15.00
2018-04-27T22:29:44.362Z,15.10
2018-04-27T22:33:41.272Z,15.20
2018-04-27T22:37:38.147Z,15.30
2018-04-27T22:41:34.824Z,15.30
2018-04-27T22:45:35.559Z,15.30
2018-04-27T22:49:28.686Z,15.30
2018-04-27T22:53:23.128Z,15.20
2018-04-27T23:01:47.543Z,15.00
2018-04-27T23:05:45.211Z,15.20
2018-04-27T23:09:39.493Z,15.20
2018-04-27T23:13:54.095Z,15.40
2018-04-27T23:17:48.295Z,15.30
2018-04-27T23:21:55.364Z,15.30
2018-04-27T23:25:48.525Z,15.30
2018-04-27T23:29:42.042Z,15.30
2018-04-27T23:33:35.238Z,15.30
2018-04-27T23:37:29.154Z,15.40
2018-04-27T23:41:22.293Z,15.40
2018-04-27T23:45:15.665Z,15.40
2018-04-27T23:49:09.748Z,15.40
2018-04-27T23:53:02.862Z,15.30
2018-04-27T23:56:56.915Z,15.40
